createdAt,value
2023-04-17T00:00:08.889Z,5.20
2023-04-17T00:03:17.142Z,5.21
2023-04-17T00:06:06.535Z,5.22
2023-04-17T00:08:54.518Z,5.25
2023-04-17T00:11:42.460Z,5.24
2023-04-17T00:14:30.324Z,5.25
2023-04-17T00:17:18.145Z,5.25
2023-04-17T00:20:10.269Z,5.27
2023-04-17T00:22:57.774Z,5.25
2023-04-17T00:25:45.731Z,5.24
2023-04-17T00:28:33.966Z,5.24
2023-04-17T00:31:22.155Z,5.23
2023-04-17T00:34:10.067Z,5.23
2023-04-17T00:36:59.258Z,5.24
2023-04-17T00:39:46.913Z,5.25
2023-04-17T00:42:34.689Z,5.24
2023-04-17T00:45:22.517Z,5.22
2023-04-17T00:48:11.284Z,5.19
2023-04-17T00:51:02.411Z,5.17
2023-04-17T00:53:50.498Z,5.18
2023-04-17T00:56:38.737Z,5.17
2023-04-17T00:59:28.226Z,5.18
2023-04-17T01:02:17.471Z,5.17
2023-04-17T01:05:06.040Z,5.16
2023-04-17T01:07:57.054Z,5.13
2023-04-17T01:10:44.986Z,5.14
2023-04-17T01:13:33.029Z,5.13
2023-04-17T01:16:20.870Z,5.13
2023-04-17T01:19:09.175Z,5.12
2023-04-17T01:21:57.767Z,5.11
2023-04-17T01:24:45.807Z,5.10
2023-04-17T01:27:35.328Z,5.11
2023-04-17T01:30:23.088Z,5.12
2023-04-17T01:33:21.890Z,5.11
2023-04-17T01:36:10.064Z,5.11
2023-04-17T01:38:58.024Z,5.11
2023-04-17T01:41:46.203Z,5.11
2023-04-17T01:44:33.750Z,5.09
2023-04-17T01:47:21.646Z,5.08
2023-04-17T01:50:11.021Z,5.06
2023-04-17T01:52:58.639Z,5.06
2023-04-17T01:55:46.528Z,5.11
2023-04-17T01:58:34.503Z,5.15
2023-04-17T02:01:22.116Z,5.19
2023-04-17T02:04:10.191Z,5.20
2023-04-17T02:06:58.693Z,5.19
2023-04-17T02:09:46.484Z,5.21
2023-04-17T02:12:34.327Z,5.20
2023-04-17T02:15:22.134Z,5.19
2023-04-17T02:18:10.168Z,5.18
2023-04-17T02:20:58.052Z,5.18
2023-04-17T02:23:45.890Z,5.18
2023-04-17T02:26:33.928Z,5.19
2023-04-17T02:29:21.905Z,5.19
2023-04-17T02:32:09.554Z,5.21
2023-04-17T02:34:57.393Z,5.20
2023-04-17T02:37:45.642Z,5.19
2023-04-17T02:40:33.466Z,5.17
2023-04-17T02:43:22.613Z,5.19
2023-04-17T02:46:10.677Z,5.19
2023-04-17T02:48:58.570Z,5.20
2023-04-17T02:51:46.382Z,5.19
2023-04-17T02:54:34.329Z,5.18
2023-04-17T02:57:23.535Z,5.16
2023-04-17T03:00:14.994Z,5.18
2023-04-17T03:03:03.497Z,5.21
2023-04-17T03:05:51.383Z,5.17
2023-04-17T03:08:39.442Z,5.23
2023-04-17T03:11:27.417Z,5.25
2023-04-17T03:14:15.864Z,5.24
2023-04-17T03:17:03.596Z,5.23
2023-04-17T03:19:51.627Z,5.20
2023-04-17T03:22:39.607Z,5.20
2023-04-17T03:25:32.673Z,5.21
2023-04-17T03:28:22.209Z,5.21
2023-04-17T03:31:11.134Z,5.20
2023-04-17T03:33:59.695Z,5.18
2023-04-17T03:36:48.457Z,5.25
2023-04-17T03:39:37.675Z,5.29
2023-04-17T03:42:27.420Z,5.32
2023-04-17T03:45:16.871Z,5.37
2023-04-17T03:48:05.170Z,5.38
2023-04-17T03:50:53.727Z,5.38
2023-04-17T03:53:41.569Z,5.36
2023-04-17T03:56:30.786Z,5.34
2023-04-17T03:59:19.327Z,5.34
2023-04-17T04:02:07.429Z,5.34
2023-04-17T04:04:56.502Z,5.37
2023-04-17T04:07:44.967Z,5.37
2023-04-17T04:10:32.866Z,5.38
2023-04-17T04:13:20.778Z,5.41
2023-04-17T04:16:15.846Z,5.45
2023-04-17T04:19:07.192Z,5.48
2023-04-17T04:21:56.164Z,5.49
2023-04-17T04:24:45.175Z,5.50
2023-04-17T04:27:33.876Z,5.50
2023-04-17T04:30:21.957Z,5.52
2023-04-17T04:33:11.422Z,5.55
2023-04-17T04:36:03.756Z,5.56
2023-04-17T04:38:52.777Z,5.55
2023-04-17T04:41:46.488Z,5.55
2023-04-17T04:44:34.705Z,5.51
2023-04-17T04:47:23.866Z,5.52
2023-04-17T04:50:11.854Z,5.56
2023-04-17T04:52:59.871Z,5.58
2023-04-17T04:56:00.436Z,5.59
2023-04-17T04:58:48.610Z,5.60
2023-04-17T05:01:37.503Z,5.61
2023-04-17T05:04:25.568Z,5.62
2023-04-17T05:07:15.698Z,5.66
2023-04-17T05:10:06.836Z,5.70
2023-04-17T05:12:56.931Z,5.72
2023-04-17T05:15:44.915Z,5.77
2023-04-17T05:18:33.239Z,5.77
2023-04-17T05:21:21.197Z,5.80
2023-04-17T05:24:10.557Z,5.83
2023-04-17T05:26:58.420Z,5.85
2023-04-17T05:29:46.248Z,5.88
2023-04-17T05:32:35.184Z,5.92
2023-04-17T05:35:49.390Z,5.94
2023-04-17T05:38:37.654Z,5.95
2023-04-17T05:41:30.796Z,5.95
2023-04-17T05:44:18.087Z,5.95
2023-04-17T05:47:06.314Z,5.93
2023-04-17T05:49:57.599Z,5.96
2023-04-17T05:52:48.390Z,5.98
2023-04-17T05:55:36.988Z,6.01
2023-04-17T05:58:26.550Z,6.04
2023-04-17T06:01:22.609Z,6.10
2023-04-17T06:04:13.171Z,6.19
2023-04-17T06:07:03.152Z,6.25
2023-04-17T06:09:51.004Z,6.31
2023-04-17T06:12:38.919Z,6.36
2023-04-17T06:15:28.598Z,6.43
2023-04-17T06:18:17.674Z,6.52
2023-04-17T06:21:09.739Z,6.58
2023-04-17T06:23:57.366Z,6.64
2023-04-17T06:26:45.167Z,6.69
2023-04-17T06:29:33.376Z,6.76
2023-04-17T06:32:21.865Z,6.86
2023-04-17T06:35:13.262Z,6.93
2023-04-17T06:38:05.576Z,7.01
2023-04-17T06:40:53.359Z,7.06
2023-04-17T06:43:41.129Z,7.11
2023-04-17T06:46:35.374Z,7.15
2023-04-17T06:49:25.235Z,7.20
2023-04-17T06:52:12.897Z,7.19
2023-04-17T06:55:00.635Z,7.20
2023-04-17T06:57:48.556Z,7.21
2023-04-17T07:00:36.439Z,7.17
2023-04-17T07:03:24.367Z,7.16
2023-04-17T07:06:12.766Z,7.24
2023-04-17T07:09:01.781Z,7.37
2023-04-17T07:11:49.995Z,7.42
2023-04-17T07:14:38.403Z,7.44
2023-04-17T07:17:27.457Z,7.49
2023-04-17T07:20:15.131Z,7.53
2023-04-17T07:23:02.656Z,7.52
2023-04-17T07:25:51.103Z,7.52
2023-04-17T07:28:40.012Z,7.55
2023-04-17T07:31:28.637Z,7.63
2023-04-17T07:34:17.862Z,7.66
2023-04-17T07:37:06.228Z,7.71
2023-04-17T07:39:54.133Z,7.77
2023-04-17T07:42:42.130Z,7.80
2023-04-17T07:45:30.384Z,7.86
2023-04-17T07:48:19.281Z,7.94
2023-04-17T07:51:07.874Z,8.07
2023-04-17T07:53:55.930Z,8.19
2023-04-17T07:56:46.734Z,8.39
2023-04-17T07:59:36.371Z,8.45
2023-04-17T08:02:24.172Z,8.41
2023-04-17T08:05:12.196Z,8.31
2023-04-17T08:08:02.368Z,8.26
2023-04-17T08:10:50.796Z,8.22
2023-04-17T08:13:38.762Z,8.14
2023-04-17T08:16:26.648Z,8.16
2023-04-17T08:19:14.685Z,8.18
2023-04-17T08:22:05.024Z,8.17
2023-04-17T08:24:58.067Z,8.17
2023-04-17T08:27:46.384Z,8.22
2023-04-17T08:30:38.716Z,8.21
2023-04-17T08:33:27.233Z,8.28
2023-04-17T08:36:15.093Z,8.45
2023-04-17T08:39:02.902Z,8.49
2023-04-17T08:42:07.380Z,8.50
2023-04-17T08:45:06.435Z,8.45
2023-04-17T08:47:54.231Z,8.35
2023-04-17T08:50:47.235Z,8.30
2023-04-17T08:53:35.031Z,8.25
2023-04-17T08:56:23.112Z,8.26
2023-04-17T08:59:11.111Z,8.30
2023-04-17T09:02:05.066Z,8.21
2023-04-17T09:04:53.140Z,8.12
2023-04-17T09:07:44.498Z,8.02
2023-04-17T09:10:46.777Z,7.96
2023-04-17T09:13:40.308Z,7.93
2023-04-17T09:16:29.257Z,7.89
2023-04-17T09:19:16.969Z,7.78
2023-04-17T09:22:23.264Z,7.67
2023-04-17T09:25:23.308Z,7.55
2023-04-17T09:28:14.870Z,7.49
2023-04-17T09:31:18.666Z,7.44
2023-04-17T09:34:08.868Z,7.31
2023-04-17T09:36:56.886Z,7.23
2023-04-17T09:40:02.261Z,7.15
2023-04-17T09:43:01.304Z,7.14
2023-04-17T09:45:49.010Z,7.14
2023-04-17T09:48:36.851Z,7.21
2023-04-17T09:51:26.395Z,7.25
2023-04-17T09:54:16.181Z,7.30
2023-04-17T09:57:08.595Z,7.33
2023-04-17T10:00:01.423Z,7.42
2023-04-17T10:02:52.616Z,7.53
2023-04-17T10:05:40.530Z,7.66
2023-04-17T10:08:28.922Z,7.69
2023-04-17T10:11:16.824Z,7.73
2023-04-17T10:14:20.845Z,7.82
2023-04-17T10:17:32.504Z,7.85
2023-04-17T10:20:23.244Z,7.87
2023-04-17T10:23:36.232Z,7.95
2023-04-17T10:26:29.953Z,8.11
2023-04-17T10:29:18.364Z,8.23
2023-04-17T10:32:16.343Z,8.37
2023-04-17T10:35:16.148Z,8.52
2023-04-17T10:38:08.950Z,8.56
2023-04-17T10:40:58.101Z,8.67
2023-04-17T10:43:47.333Z,8.74
2023-04-17T10:46:47.883Z,8.86
2023-04-17T10:49:56.036Z,9.06
2023-04-17T10:52:45.572Z,9.34
2023-04-17T10:55:33.640Z,9.59
2023-04-17T10:58:22.032Z,9.65
2023-04-17T11:01:19.938Z,9.81
2023-04-17T11:04:09.379Z,9.95
2023-04-17T11:06:57.658Z,9.99
2023-04-17T11:09:52.010Z,10.04
2023-04-17T11:12:39.875Z,10.06
2023-04-17T11:15:34.087Z,10.02
2023-04-17T11:18:22.512Z,10.02
2023-04-17T11:21:13.183Z,10.09
2023-04-17T11:24:03.359Z,10.05
2023-04-17T11:26:51.586Z,9.95
2023-04-17T11:29:39.044Z,9.93
2023-04-17T11:32:27.405Z,9.93
2023-04-17T11:35:14.827Z,9.94
2023-04-17T11:38:14.585Z,9.93
2023-04-17T11:41:02.990Z,9.90
2023-04-17T11:43:52.091Z,9.95
2023-04-17T11:46:40.066Z,10.08
2023-04-17T11:49:29.587Z,10.19
2023-04-17T11:52:17.994Z,10.27
2023-04-17T11:55:09.113Z,10.32
2023-04-17T11:58:02.439Z,10.30
2023-04-17T12:01:06.575Z,10.32
2023-04-17T12:03:59.786Z,10.20
2023-04-17T12:06:47.594Z,10.09
2023-04-17T12:09:36.703Z,10.01
2023-04-17T12:12:24.638Z,9.96
2023-04-17T12:15:12.520Z,9.97
2023-04-17T12:18:00.277Z,10.01
2023-04-17T12:20:48.709Z,10.08
2023-04-17T12:23:36.798Z,10.13
2023-04-17T12:26:28.632Z,10.23
2023-04-17T12:29:17.695Z,10.28
2023-04-17T12:32:05.786Z,10.28
2023-04-17T12:34:53.376Z,10.09
2023-04-17T12:37:42.511Z,9.86
2023-04-17T12:40:30.502Z,9.74
2023-04-17T12:43:18.564Z,9.75
2023-04-17T12:46:06.131Z,9.79
2023-04-17T12:48:59.342Z,9.79
2023-04-17T12:51:47.400Z,9.76
2023-04-17T12:54:35.549Z,9.73
2023-04-17T12:57:23.021Z,9.60
2023-04-17T13:00:11.338Z,9.58
2023-04-17T13:02:59.510Z,9.54
2023-04-17T13:05:49.724Z,9.46
2023-04-17T13:08:37.554Z,9.33
2023-04-17T13:11:25.952Z,9.29
2023-04-17T13:14:15.370Z,9.26
2023-04-17T13:17:03.385Z,9.18
2023-04-17T13:19:52.050Z,9.11
2023-04-17T13:22:40.256Z,9.05
2023-04-17T13:25:29.601Z,9.09
2023-04-17T13:28:17.186Z,9.16
2023-04-17T13:31:05.223Z,9.24
2023-04-17T13:33:53.148Z,9.30
2023-04-17T13:36:42.241Z,9.38
2023-04-17T13:39:30.376Z,9.44
2023-04-17T13:42:19.972Z,9.51
2023-04-17T13:45:08.737Z,9.52
2023-04-17T13:47:56.533Z,9.54
2023-04-17T13:50:44.302Z,9.47
2023-04-17T13:53:32.106Z,9.38
2023-04-17T13:56:23.611Z,9.31
2023-04-17T13:59:12.061Z,9.25
2023-04-17T14:02:04.142Z,9.21
2023-04-17T14:04:52.544Z,9.15
2023-04-17T14:07:40.850Z,9.15
2023-04-17T14:10:28.548Z,9.15
2023-04-17T14:13:16.750Z,9.14
2023-04-17T14:16:06.007Z,9.23
2023-04-17T14:18:53.979Z,9.28
2023-04-17T14:21:42.027Z,9.25
2023-04-17T14:24:30.102Z,9.24
2023-04-17T14:27:17.910Z,9.25
2023-04-17T14:30:19.423Z,9.21
2023-04-17T14:33:25.291Z,9.14
2023-04-17T14:36:30.158Z,9.09
2023-04-17T14:39:36.006Z,9.05
2023-04-17T14:42:23.935Z,9.02
2023-04-17T14:45:13.329Z,8.95
2023-04-17T14:48:01.343Z,8.87
2023-04-17T14:50:50.505Z,8.76
2023-04-17T14:53:38.242Z,8.75
2023-04-17T14:56:28.731Z,8.75
2023-04-17T14:59:16.343Z,8.70
2023-04-17T15:02:07.491Z,8.61
2023-04-17T15:04:55.681Z,8.56
2023-04-17T15:07:43.704Z,8.58
2023-04-17T15:10:40.505Z,8.57
2023-04-17T15:13:36.066Z,8.54
2023-04-17T15:16:23.601Z,8.49
2023-04-17T15:19:11.956Z,8.43
2023-04-17T15:21:59.888Z,8.36
2023-04-17T15:24:47.669Z,8.31
2023-04-17T15:27:35.504Z,8.26
2023-04-17T15:30:23.283Z,8.22
2023-04-17T15:33:12.740Z,8.21
2023-04-17T15:36:02.649Z,8.14
2023-04-17T15:38:50.549Z,8.10
2023-04-17T15:41:41.433Z,8.10
2023-04-17T15:44:29.995Z,8.13
2023-04-17T15:47:17.588Z,8.15
2023-04-17T15:50:06.012Z,8.15
2023-04-17T15:52:53.539Z,8.09
2023-04-17T15:55:43.840Z,8.07
2023-04-17T15:58:31.686Z,8.03
2023-04-17T16:01:19.485Z,7.93
2023-04-17T16:04:07.284Z,7.89
2023-04-17T16:06:55.611Z,7.87
2023-04-17T16:09:44.718Z,7.78
2023-04-17T16:12:32.274Z,7.73
2023-04-17T16:15:19.906Z,7.66
2023-04-17T16:18:08.293Z,7.58
2023-04-17T16:20:55.935Z,7.56
2023-04-17T16:23:45.933Z,7.53
2023-04-17T16:26:33.768Z,7.53
2023-04-17T16:29:22.349Z,7.51
2023-04-17T16:32:12.043Z,7.43
2023-04-17T16:34:59.629Z,7.42
2023-04-17T16:37:47.337Z,7.40
2023-04-17T16:40:35.097Z,7.29
2023-04-17T16:43:23.445Z,7.23
2023-04-17T16:46:22.213Z,7.20
2023-04-17T16:49:16.482Z,7.18
2023-04-17T16:52:05.675Z,7.12
2023-04-17T16:54:53.642Z,7.06
2023-04-17T16:57:43.899Z,6.98
2023-04-17T17:00:32.257Z,6.90
2023-04-17T17:03:19.746Z,6.81
2023-04-17T17:06:07.546Z,6.75
2023-04-17T17:08:55.555Z,6.71
2023-04-17T17:11:43.112Z,6.69
2023-04-17T17:14:30.913Z,6.66
2023-04-17T17:17:19.843Z,6.60
2023-04-17T17:20:08.983Z,6.55
2023-04-17T17:22:56.838Z,6.52
2023-04-17T17:28:37.494Z,6.53
2023-04-17T17:31:24.594Z,6.50
2023-04-17T17:34:25.407Z,6.47
2023-04-17T17:37:13.132Z,6.44
2023-04-17T17:40:00.115Z,6.40
2023-04-17T17:42:47.219Z,6.37
2023-04-17T17:45:33.926Z,6.31
2023-04-17T17:48:20.952Z,6.26
2023-04-17T17:51:08.085Z,6.23
2023-04-17T17:53:57.424Z,6.17
2023-04-17T17:56:45.590Z,6.13
2023-04-17T17:59:32.533Z,6.13
2023-04-17T18:02:19.499Z,6.10
2023-04-17T18:05:06.541Z,6.05
2023-04-17T18:07:53.440Z,5.98
2023-04-17T18:10:40.050Z,5.91
2023-04-17T18:13:26.932Z,5.86
2023-04-17T18:16:13.965Z,5.82
2023-04-17T18:19:03.273Z,5.80
2023-04-17T18:21:49.419Z,5.79
2023-04-17T18:24:37.360Z,5.78
2023-04-17T18:27:27.393Z,5.75
2023-04-17T18:30:16.250Z,5.70
2023-04-17T18:33:04.894Z,5.64
2023-04-17T18:35:53.602Z,5.66
2023-04-17T18:38:40.866Z,5.65
2023-04-17T18:41:29.690Z,5.66
2023-04-17T18:44:17.241Z,5.64
2023-04-17T18:47:03.454Z,5.61
2023-04-17T18:49:53.112Z,5.56
2023-04-17T18:52:47.635Z,5.50
2023-04-17T18:55:37.820Z,5.43
2023-04-17T18:58:24.253Z,5.36
2023-04-17T19:01:11.082Z,5.30
2023-04-17T19:03:58.042Z,5.26
2023-04-17T19:06:47.955Z,5.23
2023-04-17T19:09:37.413Z,5.21
2023-04-17T19:12:23.784Z,5.19
2023-04-17T19:15:11.919Z,5.17
2023-04-17T19:18:09.315Z,5.15
2023-04-17T19:20:56.472Z,5.12
2023-04-17T19:23:43.497Z,5.11
2023-04-17T19:26:33.140Z,5.08
2023-04-17T19:29:23.288Z,5.07
2023-04-17T19:32:14.353Z,5.06
2023-04-17T19:35:04.457Z,5.05
2023-04-17T19:37:52.661Z,5.03
2023-04-17T19:40:40.091Z,5.03
2023-04-17T19:43:27.181Z,5.03
2023-04-17T19:46:14.230Z,5.07
2023-04-17T19:49:01.659Z,5.08
2023-04-17T19:51:50.101Z,5.09
2023-04-17T19:54:36.441Z,5.10
2023-04-17T19:57:23.163Z,5.10
2023-04-17T20:00:12.527Z,5.08
2023-04-17T20:03:04.066Z,5.09
2023-04-17T20:05:50.900Z,5.07
2023-04-17T20:08:37.209Z,5.08
2023-04-17T20:11:24.595Z,5.09
2023-04-17T20:14:14.076Z,5.10
2023-04-17T20:17:00.328Z,5.12
2023-04-17T20:19:46.861Z,5.14
2023-04-17T20:22:33.270Z,5.17
2023-04-17T20:25:20.011Z,5.19
2023-04-17T20:28:07.207Z,5.20
2023-04-17T20:30:55.403Z,5.25
2023-04-17T20:33:43.167Z,5.29
2023-04-17T20:36:29.681Z,5.30
2023-04-17T20:39:16.332Z,5.30
2023-04-17T20:42:03.074Z,5.29
2023-04-17T20:44:50.634Z,5.27
2023-04-17T20:47:55.354Z,5.29
2023-04-17T20:50:43.960Z,5.32
2023-04-17T20:53:30.550Z,5.32
2023-04-17T20:56:17.085Z,5.33
2023-04-17T20:59:03.290Z,5.36
2023-04-17T21:01:52.286Z,5.36
2023-04-17T21:04:40.833Z,5.38
2023-04-17T21:07:27.154Z,5.39
2023-04-17T21:10:13.818Z,5.42
2023-04-17T21:13:00.490Z,5.45
2023-04-17T21:15:48.157Z,5.46
2023-04-17T21:18:34.756Z,5.48
2023-04-17T21:21:20.922Z,5.50
2023-04-17T21:24:08.512Z,5.52
2023-04-17T21:27:00.945Z,5.53
2023-04-17T21:29:47.746Z,5.53
2023-04-17T21:32:34.747Z,5.51
2023-04-17T21:35:21.670Z,5.51
2023-04-17T21:38:13.217Z,5.51
2023-04-17T21:41:08.424Z,5.52
2023-04-17T21:43:57.859Z,5.52
2023-04-17T21:46:45.614Z,5.55
2023-04-17T21:49:32.394Z,5.57
2023-04-17T21:52:19.098Z,5.59
2023-04-17T21:55:08.042Z,5.60
2023-04-17T21:57:54.334Z,5.59
2023-04-17T22:00:41.775Z,5.59
2023-04-17T22:03:28.351Z,5.58
2023-04-17T22:06:15.254Z,5.60
2023-04-17T22:09:04.210Z,5.61
2023-04-17T22:11:50.457Z,5.61
2023-04-17T22:14:37.560Z,5.63
2023-04-17T22:17:25.169Z,5.68
2023-04-17T22:20:13.566Z,5.72
2023-04-17T22:23:00.362Z,5.75
2023-04-17T22:25:48.415Z,5.79
2023-04-17T22:28:34.955Z,5.78
2023-04-17T22:31:21.665Z,5.78
2023-04-17T22:34:08.361Z,5.78
2023-04-17T22:36:54.806Z,5.77
2023-04-17T22:39:41.567Z,5.76
2023-04-17T22:42:28.483Z,5.74
2023-04-17T22:45:15.427Z,5.75
2023-04-17T22:48:02.486Z,5.77
2023-04-17T22:50:49.814Z,5.79
2023-04-17T22:53:37.985Z,5.80
2023-04-17T22:56:24.550Z,5.82
2023-04-17T22:59:11.393Z,5.83
2023-04-17T23:01:58.442Z,5.81
2023-04-17T23:04:45.963Z,5.81
2023-04-17T23:07:32.716Z,5.81
2023-04-17T23:10:21.425Z,5.80
2023-04-17T23:13:07.726Z,5.78
2023-04-17T23:15:54.409Z,5.80
2023-04-17T23:18:41.307Z,5.78
2023-04-17T23:21:27.796Z,5.79
2023-04-17T23:24:16.082Z,5.79
2023-04-17T23:27:02.518Z,5.80
2023-04-17T23:29:49.138Z,5.83
2023-04-17T23:32:35.776Z,5.86
2023-04-17T23:35:22.446Z,5.88
2023-04-17T23:38:10.160Z,5.89
2023-04-17T23:40:56.815Z,5.90
2023-04-17T23:43:42.886Z,5.88
2023-04-17T23:46:29.337Z,5.86
2023-04-17T23:49:16.156Z,5.86
2023-04-17T23:52:03.186Z,5.85
2023-04-17T23:54:50.106Z,5.86
2023-04-17T23:57:37.380Z,5.87
